Wenham, MA (01984)

10:09 AM EST on December 18, 2014 (GMT -0500)
APRSWXNET Beverly MA US | Change Station
CLOSE
Current Station
Personal Weather Station
Location: Beverly, MA
Elevation: 72 ft
Nearby Weather Stations

Elev 72 ft 42.56 °N, 70.86 °W | Updated 36 minutes ago

Overcast
Overcast
37 °F
Feels Like 33 °F
N
5
Wind Variable Wind from WNW
Gusts 14.0 mph

Today
High -- | Low -- °F
--% Chance of Precip.
Yesterday
High -- | Low -- °F
Precip. -- in
7:08 AM 4:11 PM
Waning Crescent, 14% visible
Pressure 29.75 in
Visibility 10.0 miles
Clouds Mostly Cloudy 3500 ft
Mostly Cloudy 4900 ft
Overcast 8000 ft
Windchill 33 °F
Dew Point 35 °F
Humidity 93%
Rainfall 0.04 in
Snow Depth Not available.
UV 0 out of 12
Pollen .10 out of 12
Air Quality Not available.
Flu Activity Not available.
METAR KBVY 181453Z 28009G18KT 10SM BKN035 BKN049 OVC080 04/01 A2976 RMK AO2 RAE26 SLP072 P0000 60002 T00390011 51008

More Conditions Fewer Conditions

Pressure 29.75 in
Visibility 10.0 miles
Clouds Mostly Cloudy 3500 ft
Mostly Cloudy 4900 ft
Overcast 8000 ft
Windchill 33 °F
Dew Point 35 °F
Humidity 93%
Rainfall 0.04 in
Snow Depth Not available.
UV 0 out of 12
Pollen .10 out of 12
Air Quality Not available.
Flu Activity Not available.
METAR KBVY 181453Z 28009G18KT 10SM BKN035 BKN049 OVC080 04/01 A2976 RMK AO2 RAE26 SLP072 P0000 60002 T00390011 51008

More Conditions Fewer Conditions

10-Day Weather Forecast

Almanac

Astronomy

Dec. 18, 2014 Rise Set
Actual Time
Civil Twilight
Nautical Twilight
Astronomical Twilight
Moon
Length of Visible Light
Length of Day
Tomorrow will be .
, % of the Moon is Illuminated

Today's Extremes

State Highs State Lows

Community

WunderPhotos

Upload Photos

1,778,937 photos uploaded!

WunderBlogs® & News

Nearby

Air Quality

  Air Quality AQ Index Pollutant
Not available.

Snow Depth

Station Depth Elevation

Earthquake Activity

City Distance Mag. Time & Date
Minimum magnitude displayed is 2.5.

Coastal Water Temperatures

Place Temperature

Nearby Weather Stations